createdAt,value
2018-11-04T00:01:12.659Z,102326.99
2018-11-04T00:03:40.628Z,102318.84
2018-11-04T00:06:08.612Z,102318.63
2018-11-04T00:08:36.539Z,102309.36
2018-11-04T00:11:04.757Z,102308.05
2018-11-04T00:13:32.653Z,102303.08
2018-11-04T00:16:00.597Z,102302.17
2018-11-04T00:18:28.461Z,102295.02
2018-11-04T00:20:56.339Z,102296.59
2018-11-04T00:23:24.247Z,102289.27
2018-11-04T00:25:52.182Z,102294.25
2018-11-04T00:28:20.095Z,102296.59
2018-11-04T00:30:48.025Z,102289.17
2018-11-04T00:33:15.884Z,102286.84
2018-11-04T00:35:43.812Z,102288.91
2018-11-04T00:38:11.726Z,102284.48
2018-11-04T00:40:39.681Z,102277.59
2018-11-04T00:43:07.544Z,102269.01
2018-11-04T00:45:35.535Z,102273.46
2018-11-04T00:48:03.453Z,102270.06
2018-11-04T00:50:31.408Z,102264.59
2018-11-04T00:52:59.348Z,102261.48
2018-11-04T00:55:27.301Z,102258.09
2018-11-04T00:57:55.229Z,102244.83
2018-11-04T01:00:23.429Z,102244.56
2018-11-04T01:02:51.372Z,102246.13
2018-11-04T01:05:19.394Z,102244.59
2018-11-04T01:07:47.352Z,102240.72
2018-11-04T01:10:15.310Z,102231.75
2018-11-04T01:12:43.943Z,102226.68
2018-11-04T01:15:12.926Z,102223.56
2018-11-04T01:17:41.507Z,102223.70
2018-11-04T01:20:11.631Z,102224.62
2018-11-04T01:22:39.545Z,102217.09
2018-11-04T01:25:07.436Z,102219.56
2018-11-04T01:27:35.409Z,102222.56
2018-11-04T01:30:03.379Z,102217.10
2018-11-04T01:32:31.304Z,102218.92
2018-11-04T01:34:59.237Z,102215.02
2018-11-04T01:37:27.139Z,102210.05
2018-11-04T01:39:55.057Z,102207.31
2018-11-04T01:42:22.993Z,102209.81
2018-11-04T01:44:50.972Z,102200.44
2018-11-04T01:47:18.833Z,102195.53
2018-11-04T01:49:46.756Z,102191.62
2018-11-04T01:52:14.690Z,102189.78
2018-11-04T01:54:42.680Z,102180.56
2018-11-04T01:57:10.540Z,102178.09
2018-11-04T01:59:38.465Z,102175.26
2018-11-04T02:02:06.377Z,102170.45
2018-11-04T02:04:34.368Z,102168.75
2018-11-04T02:07:02.289Z,102167.95
2018-11-04T02:09:30.215Z,102160.30
2018-11-04T02:11:58.157Z,102153.27
2018-11-04T02:14:26.127Z,102158.48
2018-11-04T02:16:54.095Z,102156.81
2018-11-04T02:19:22.009Z,102151.22
2018-11-04T02:21:49.942Z,102144.98
2018-11-04T02:24:17.884Z,102142.23
2018-11-04T02:26:45.748Z,102138.63
2018-11-04T02:29:13.636Z,102136.53
2018-11-04T02:31:41.552Z,102134.97
2018-11-04T02:34:09.519Z,102134.98
2018-11-04T02:36:37.417Z,102132.00
2018-11-04T02:39:06.503Z,102134.73
2018-11-04T02:41:34.419Z,102131.20
2018-11-04T02:44:03.045Z,102130.20
2018-11-04T02:46:31.085Z,102135.24
2018-11-04T02:48:59.095Z,102133.15
2018-11-04T02:51:27.028Z,102129.53
2018-11-04T02:53:54.951Z,102129.53
2018-11-04T02:56:22.909Z,102128.62
2018-11-04T02:58:50.866Z,102124.21
2018-11-04T03:01:18.845Z,102128.77
2018-11-04T03:03:46.800Z,102114.09
2018-11-04T03:06:14.774Z,102115.63
2018-11-04T03:08:42.708Z,102112.91
2018-11-04T03:11:10.656Z,102114.32
2018-11-04T03:13:38.612Z,102106.78
2018-11-04T03:16:06.572Z,102105.11
2018-11-04T03:18:34.541Z,102108.88
2018-11-04T03:21:02.450Z,102104.58
2018-11-04T03:23:30.441Z,102101.07
2018-11-04T03:25:58.434Z,102107.44
2018-11-04T03:28:26.355Z,102096.53
2018-11-04T03:30:54.265Z,102087.58
2018-11-04T03:33:22.222Z,102088.73
2018-11-04T03:35:50.134Z,102089.00
2018-11-04T03:38:18.048Z,102083.42
2018-11-04T03:40:45.968Z,102083.69
2018-11-04T03:43:13.950Z,102078.38
2018-11-04T03:45:41.869Z,102075.63
2018-11-04T03:48:09.870Z,102074.09
2018-11-04T03:50:37.749Z,102075.53
2018-11-04T03:53:06.690Z,102074.50
2018-11-04T03:55:35.593Z,102069.05
2018-11-04T03:58:03.948Z,102065.16
2018-11-04T04:00:31.901Z,102065.91
2018-11-04T04:02:59.783Z,102065.52
2018-11-04T04:05:27.704Z,102070.22
2018-11-04T04:07:55.707Z,102067.47
2018-11-04T04:10:23.587Z,102051.88
2018-11-04T04:12:51.474Z,102057.37
2018-11-04T04:15:19.422Z,102058.65
2018-11-04T04:17:47.403Z,102055.14
2018-11-04T04:20:15.370Z,102056.19
2018-11-04T04:22:43.315Z,102051.89
2018-11-04T04:25:11.272Z,102051.39
2018-11-04T04:27:39.198Z,102049.84
2018-11-04T04:30:08.971Z,102042.80
2018-11-04T04:32:36.953Z,102038.52
2018-11-04T04:35:05.725Z,102040.99
2018-11-04T04:37:33.708Z,102039.56
2018-11-04T04:40:02.289Z,102045.41
2018-11-04T04:42:30.268Z,102042.81
2018-11-04T04:44:58.329Z,102037.88
2018-11-04T04:47:26.311Z,102042.31
2018-11-04T04:49:54.414Z,102039.82
2018-11-04T04:52:22.374Z,102032.17
2018-11-04T04:54:50.303Z,102027.38
2018-11-04T04:57:18.208Z,102027.63
2018-11-04T04:59:46.174Z,102034.27
2018-11-04T05:02:14.205Z,102026.19
2018-11-04T05:04:42.129Z,102031.67
2018-11-04T05:07:10.619Z,102024.64
2018-11-04T05:09:40.804Z,102020.23
2018-11-04T05:12:08.735Z,102027.23
2018-11-04T05:14:36.714Z,102020.75
2018-11-04T05:17:05.024Z,102019.33
2018-11-04T05:19:32.987Z,102017.09
2018-11-04T05:22:01.521Z,102021.27
2018-11-04T05:24:29.500Z,102018.38
2018-11-04T05:26:57.509Z,102018.53
2018-11-04T05:29:25.498Z,102014.48
2018-11-04T05:31:53.465Z,102024.52
2018-11-04T05:34:21.438Z,102023.73
2018-11-04T05:36:49.425Z,102020.33
2018-11-04T05:39:17.394Z,102025.81
2018-11-04T05:41:45.382Z,102020.73
2018-11-04T05:44:13.305Z,102022.94
2018-11-04T05:46:41.294Z,102018.41
2018-11-04T05:49:09.297Z,102015.16
2018-11-04T05:51:37.229Z,102014.79
2018-11-04T05:54:05.509Z,102010.89
2018-11-04T05:56:33.451Z,102006.20
2018-11-04T05:59:01.376Z,102015.05
2018-11-04T06:01:29.336Z,102012.16
2018-11-04T06:03:57.247Z,102009.06
2018-11-04T06:06:25.133Z,102009.20
2018-11-04T06:08:53.059Z,102006.47
2018-11-04T06:11:21.033Z,102005.03
2018-11-04T06:13:48.935Z,102008.42
2018-11-04T06:16:16.840Z,102004.38
2018-11-04T06:18:44.777Z,102001.67
2018-11-04T06:21:12.729Z,102001.12
2018-11-04T06:23:40.610Z,102009.97
2018-11-04T06:26:08.731Z,102004.91
2018-11-04T06:28:36.746Z,102006.06
2018-11-04T06:31:04.817Z,102000.63
2018-11-04T06:33:33.366Z,102002.06
2018-11-04T06:36:01.578Z,102000.63
2018-11-04T06:38:29.515Z,101999.58
2018-11-04T06:40:57.500Z,102004.91
2018-11-04T06:43:25.526Z,102002.06
2018-11-04T06:45:53.454Z,101995.82
2018-11-04T06:48:21.542Z,101995.97
2018-11-04T06:50:49.523Z,101998.42
2018-11-04T06:53:17.601Z,101995.56
2018-11-04T06:55:45.637Z,101996.22
2018-11-04T06:58:13.626Z,101988.81
2018-11-04T07:00:41.594Z,101987.77
2018-11-04T07:03:09.659Z,101984.14
2018-11-04T07:05:37.780Z,101980.24
2018-11-04T07:08:05.833Z,101985.44
2018-11-04T07:10:33.783Z,101982.69
2018-11-04T07:13:02.145Z,101982.03
2018-11-04T07:15:30.051Z,101978.92
2018-11-04T07:17:58.028Z,101984.52
2018-11-04T07:20:25.972Z,101979.41
2018-11-04T07:22:53.967Z,101978.64
2018-11-04T07:25:21.947Z,101979.28
2018-11-04T07:27:49.950Z,101979.30
2018-11-04T07:30:17.877Z,101983.28
2018-11-04T07:32:46.080Z,101981.08
2018-11-04T07:35:14.005Z,101983.69
2018-11-04T07:37:42.021Z,101980.19
2018-11-04T07:40:10.164Z,101980.70
2018-11-04T07:42:38.655Z,101987.71
2018-11-04T07:45:07.178Z,101985.89
2018-11-04T07:47:35.212Z,101983.14
2018-11-04T07:50:03.359Z,101989.23
2018-11-04T07:52:31.315Z,101977.92
2018-11-04T07:54:59.333Z,101977.89
2018-11-04T07:57:27.309Z,101975.89
2018-11-04T07:59:55.295Z,101975.45
2018-11-04T08:02:23.289Z,101986.83
2018-11-04T08:04:51.555Z,101982.89
2018-11-04T08:07:19.519Z,101980.36
2018-11-04T08:09:47.679Z,101970.57
2018-11-04T08:12:15.914Z,101972.22
2018-11-04T08:14:43.944Z,101963.98
2018-11-04T08:17:12.078Z,101965.48
2018-11-04T08:19:40.032Z,101961.94
2018-11-04T08:22:08.149Z,101958.44
2018-11-04T08:24:36.140Z,101956.34
2018-11-04T08:27:04.126Z,101951.09
2018-11-04T08:29:32.117Z,101947.52
2018-11-04T08:32:00.904Z,101938.15
2018-11-04T08:34:28.935Z,101929.75
2018-11-04T08:36:57.030Z,101935.02
2018-11-04T08:39:25.111Z,101936.93
2018-11-04T08:41:53.106Z,101937.45
2018-11-04T08:44:21.068Z,101928.95
2018-11-04T08:46:49.138Z,101925.39
2018-11-04T08:49:17.195Z,101923.33
2018-11-04T08:51:45.207Z,101927.19
2018-11-04T08:54:13.218Z,101925.03
2018-11-04T08:56:41.295Z,101918.29
2018-11-04T08:59:09.292Z,101913.30
2018-11-04T09:01:37.317Z,101908.69
2018-11-04T09:04:05.321Z,101905.88
2018-11-04T09:06:33.439Z,101908.56
2018-11-04T09:09:01.464Z,101910.19
2018-11-04T09:11:29.539Z,101904.80
2018-11-04T09:13:57.526Z,101900.59
2018-11-04T09:16:25.521Z,101901.61
2018-11-04T09:18:53.511Z,101903.88
2018-11-04T09:21:21.941Z,101894.27
2018-11-04T09:23:50.160Z,101894.17
2018-11-04T09:26:18.334Z,101894.38
2018-11-04T09:28:46.415Z,101893.21
2018-11-04T09:31:14.438Z,101895.53
2018-11-04T09:33:42.435Z,101885.05
2018-11-04T09:36:10.593Z,101885.67
2018-11-04T09:38:38.469Z,101887.95
2018-11-04T09:41:06.424Z,101876.30
2018-11-04T09:43:34.505Z,101873.45
2018-11-04T09:46:02.640Z,101875.97
2018-11-04T09:48:30.636Z,101878.88
2018-11-04T09:50:58.768Z,101876.94
2018-11-04T09:53:26.801Z,101879.55
2018-11-04T09:55:54.897Z,101868.84
2018-11-04T09:58:22.920Z,101866.34
2018-11-04T10:00:50.914Z,101856.22
2018-11-04T10:03:18.842Z,101865.39
2018-11-04T10:05:46.813Z,101863.58
2018-11-04T10:08:14.851Z,101857.36
2018-11-04T10:10:42.819Z,101858.08
2018-11-04T10:13:10.901Z,101848.66
2018-11-04T10:15:39.046Z,101846.33
2018-11-04T10:18:07.016Z,101853.91
2018-11-04T10:20:35.380Z,101850.22
2018-11-04T10:23:03.561Z,101843.70
2018-11-04T10:25:31.555Z,101835.10
2018-11-04T10:27:59.497Z,101831.98
2018-11-04T10:30:27.576Z,101827.23
2018-11-04T10:32:55.545Z,101831.48
2018-11-04T10:35:23.572Z,101824.03
2018-11-04T10:37:51.627Z,101818.53
2018-11-04T10:40:19.612Z,101826.30
2018-11-04T10:42:47.580Z,101815.70
2018-11-04T10:45:15.574Z,101814.48
2018-11-04T10:47:43.590Z,101807.66
2018-11-04T10:50:12.559Z,101811.43
2018-11-04T10:52:40.589Z,101817.28
2018-11-04T10:55:09.831Z,101805.05
2018-11-04T10:57:37.923Z,101799.52
2018-11-04T11:00:15.867Z,101790.97
2018-11-04T11:02:44.504Z,101797.02
2018-11-04T11:05:12.546Z,101799.70
2018-11-04T11:07:40.629Z,101800.48
2018-11-04T11:10:09.655Z,101791.70
2018-11-04T11:12:37.676Z,101783.81
2018-11-04T11:15:06.487Z,101789.31
2018-11-04T11:17:34.492Z,101787.89
2018-11-04T11:20:02.554Z,101779.06
2018-11-04T11:22:30.571Z,101776.80
2018-11-04T11:24:58.512Z,101773.61
2018-11-04T11:27:28.417Z,101775.94
2018-11-04T11:29:56.477Z,101774.56
2018-11-04T11:32:24.423Z,101772.06
2018-11-04T11:34:52.395Z,101765.80
2018-11-04T11:37:20.396Z,101761.58
2018-11-04T11:39:48.358Z,101752.70
2018-11-04T11:42:16.307Z,101746.69
2018-11-04T11:44:44.383Z,101742.23
2018-11-04T11:47:12.321Z,101739.13
2018-11-04T11:49:40.309Z,101728.25
2018-11-04T11:52:08.438Z,101723.02
2018-11-04T11:54:36.485Z,101718.43
2018-11-04T11:57:04.533Z,101721.36
2018-11-04T11:59:32.540Z,101713.46
2018-11-04T12:02:00.635Z,101710.95
2018-11-04T12:04:28.666Z,101709.59
2018-11-04T12:06:57.534Z,101713.39
2018-11-04T12:09:25.512Z,101705.56
2018-11-04T12:11:53.700Z,101715.08
2018-11-04T12:14:21.707Z,101705.86
2018-11-04T12:16:49.781Z,101699.62
2018-11-04T12:19:17.779Z,101689.10
2018-11-04T12:21:45.771Z,101691.47
2018-11-04T12:24:13.974Z,101690.61
2018-11-04T12:26:41.936Z,101691.83
2018-11-04T12:29:09.921Z,101685.38
2018-11-04T12:31:38.195Z,101682.41
2018-11-04T12:34:06.157Z,101685.92
2018-11-04T12:36:34.101Z,101681.16
2018-11-04T12:39:02.048Z,101680.30
2018-11-04T12:41:30.279Z,101680.98
2018-11-04T12:43:58.314Z,101679.02
2018-11-04T12:46:26.384Z,101681.42
2018-11-04T12:48:54.456Z,101674.99
2018-11-04T12:51:22.469Z,101677.67
2018-11-04T12:53:50.923Z,101672.58
2018-11-04T12:56:19.545Z,101672.97
2018-11-04T12:58:47.864Z,101666.89
2018-11-04T13:01:15.935Z,101658.53
2018-11-04T13:03:43.887Z,101667.09
2018-11-04T13:06:13.998Z,101657.31
2018-11-04T13:08:42.553Z,101652.55
2018-11-04T13:11:11.013Z,101648.13
2018-11-04T13:13:40.224Z,101648.36
2018-11-04T13:16:09.492Z,101644.27
2018-11-04T13:18:37.648Z,101636.53
2018-11-04T13:21:05.828Z,101627.51
2018-11-04T13:23:33.791Z,101635.06
2018-11-04T13:26:01.925Z,101631.91
2018-11-04T13:28:30.800Z,101635.64
2018-11-04T13:30:58.792Z,101633.13
2018-11-04T13:33:26.965Z,101630.65
2018-11-04T13:35:55.085Z,101628.55
2018-11-04T13:38:23.595Z,101633.23
2018-11-04T13:40:52.045Z,101633.85
2018-11-04T13:43:20.554Z,101624.63
2018-11-04T13:45:48.513Z,101619.78
2018-11-04T13:48:16.496Z,101613.02
2018-11-04T13:50:44.541Z,101608.83
2018-11-04T13:53:12.555Z,101607.53
2018-11-04T13:55:40.717Z,101605.56
2018-11-04T13:58:08.813Z,101607.53
2018-11-04T14:00:36.877Z,101602.06
2018-11-04T14:03:05.109Z,101591.33
2018-11-04T14:05:33.106Z,101600.60
2018-11-04T14:08:01.225Z,101599.64
2018-11-04T14:10:29.189Z,101601.07
2018-11-04T14:12:57.263Z,101596.77
2018-11-04T14:15:25.173Z,101597.01
2018-11-04T14:17:53.239Z,101601.39
2018-11-04T14:20:21.287Z,101599.48
2018-11-04T14:22:49.283Z,101598.06
2018-11-04T14:25:17.332Z,101596.12
2018-11-04T14:27:45.469Z,101609.52
2018-11-04T14:30:14.544Z,101605.02
2018-11-04T14:32:42.940Z,101609.52
2018-11-04T14:35:11.522Z,101604.38
2018-11-04T14:37:40.628Z,101606.69
2018-11-04T14:40:10.431Z,101607.95
2018-11-04T14:42:39.153Z,101605.20
2018-11-04T14:45:07.492Z,101607.45
2018-11-04T14:47:35.666Z,101612.18
2018-11-04T14:50:04.486Z,101610.73
2018-11-04T14:52:32.648Z,101603.41
2018-11-04T14:55:00.853Z,101609.42
2018-11-04T14:57:28.933Z,101608.77
2018-11-04T14:59:57.318Z,101606.48
2018-11-04T15:02:25.665Z,101611.20
2018-11-04T15:04:53.981Z,101604.79
2018-11-04T15:07:26.947Z,101605.89
2018-11-04T15:09:56.399Z,101608.31
2018-11-04T15:12:24.709Z,101605.55
2018-11-04T15:14:52.814Z,101607.69
2018-11-04T15:17:20.824Z,101609.77
2018-11-04T15:19:48.828Z,101600.43
2018-11-04T15:22:16.814Z,101600.30
2018-11-04T15:24:44.860Z,101593.44
2018-11-04T15:27:12.903Z,101598.66
2018-11-04T15:29:40.946Z,101595.39
2018-11-04T15:32:09.368Z,101595.05
2018-11-04T15:34:37.574Z,101595.13
2018-11-04T15:37:05.667Z,101590.67
2018-11-04T15:39:33.589Z,101598.56
2018-11-04T15:42:01.750Z,101588.07
2018-11-04T15:44:29.796Z,101591.84
2018-11-04T15:46:57.829Z,101605.41
2018-11-04T15:49:25.864Z,101588.18
2018-11-04T15:51:54.056Z,101589.92
2018-11-04T15:54:23.070Z,101588.61
2018-11-04T15:56:51.184Z,101590.81
2018-11-04T15:59:19.233Z,101592.95
2018-11-04T16:01:47.284Z,101592.76
2018-11-04T16:04:15.605Z,101593.73
2018-11-04T16:06:49.150Z,101595.16
2018-11-04T16:09:17.230Z,101594.57
2018-11-04T16:11:45.229Z,101591.44
2018-11-04T16:14:13.199Z,101591.86
2018-11-04T16:16:41.163Z,101599.87
2018-11-04T16:19:09.629Z,101587.59
2018-11-04T16:21:37.830Z,101592.90
2018-11-04T16:24:05.942Z,101594.25
2018-11-04T16:26:34.013Z,101595.91
2018-11-04T16:29:02.003Z,101587.14
2018-11-04T16:31:29.963Z,101583.95
2018-11-04T16:33:57.953Z,101587.73
2018-11-04T16:36:25.952Z,101589.66
2018-11-04T16:38:54.071Z,101592.79
2018-11-04T16:41:22.846Z,101586.67
2018-11-04T16:43:57.501Z,101590.96
2018-11-04T16:46:25.529Z,101589.94
2018-11-04T16:48:56.677Z,101586.95
2018-11-04T16:51:26.848Z,101586.80
2018-11-04T16:53:54.902Z,101588.38
2018-11-04T16:56:23.110Z,101590.20
2018-11-04T16:58:51.424Z,101578.87
2018-11-04T17:01:19.811Z,101588.05
2018-11-04T17:03:53.250Z,101573.30
2018-11-04T17:06:21.583Z,101577.08
2018-11-04T17:08:49.694Z,101591.75
2018-11-04T17:11:17.732Z,101581.86
2018-11-04T17:13:45.738Z,101588.31
2018-11-04T17:16:13.796Z,101591.41
2018-11-04T17:18:41.913Z,101603.91
2018-11-04T17:21:09.849Z,101600.84
2018-11-04T17:23:37.792Z,101595.38
2018-11-04T17:26:05.868Z,101589.08
2018-11-04T17:28:33.840Z,101592.06
2018-11-04T17:31:01.886Z,101589.97
2018-11-04T17:33:29.907Z,101591.02
2018-11-04T17:35:58.050Z,101582.80
2018-11-04T17:38:25.977Z,101579.70
2018-11-04T17:40:54.374Z,101575.19
2018-11-04T17:43:22.558Z,101581.90
2018-11-04T17:45:50.597Z,101577.08
2018-11-04T17:48:18.616Z,101578.97
2018-11-04T17:50:46.654Z,101576.34
2018-11-04T17:53:20.078Z,101573.45
2018-11-04T17:55:49.898Z,101573.72
2018-11-04T17:58:34.252Z,101571.62
2018-11-04T18:01:03.341Z,101569.67
2018-11-04T18:03:32.328Z,101569.34
2018-11-04T18:06:00.257Z,101568.78
2018-11-04T18:08:29.284Z,101571.25
2018-11-04T18:10:57.366Z,101574.34
2018-11-04T18:13:25.369Z,101577.23
2018-11-04T18:15:55.385Z,101570.05
2018-11-04T18:18:26.575Z,101573.02
2018-11-04T18:20:54.557Z,101580.14
2018-11-04T18:23:22.870Z,101575.80
2018-11-04T18:25:50.983Z,101578.71
2018-11-04T18:28:19.103Z,101584.98
2018-11-04T18:30:47.121Z,101577.69
2018-11-04T18:33:15.057Z,101575.14
2018-11-04T18:35:43.037Z,101579.94
2018-11-04T18:38:10.970Z,101579.31
2018-11-04T18:40:39.004Z,101577.01
2018-11-04T18:43:06.995Z,101570.44
2018-11-04T18:45:34.911Z,101580.22
2018-11-04T18:48:02.855Z,101579.08
2018-11-04T18:50:30.879Z,101581.70
2018-11-04T18:52:58.728Z,101577.16
2018-11-04T18:55:26.647Z,101570.44
2018-11-04T18:57:54.533Z,101568.27
2018-11-04T19:00:22.443Z,101563.85
2018-11-04T19:02:50.412Z,101565.83
2018-11-04T19:05:18.611Z,101568.72
2018-11-04T19:07:47.323Z,101564.45
2018-11-04T19:10:16.842Z,101564.14
2018-11-04T19:12:44.794Z,101560.11
2018-11-04T19:15:13.222Z,101560.13
2018-11-04T19:17:41.159Z,101553.91
2018-11-04T19:20:10.692Z,101556.29
2018-11-04T19:22:39.126Z,101564.14
2018-11-04T19:25:08.269Z,101556.30
2018-11-04T19:27:36.362Z,101555.33
2018-11-04T19:30:05.322Z,101559.68
2018-11-04T19:32:33.361Z,101564.17
2018-11-04T19:35:01.788Z,101561.09
2018-11-04T19:37:29.775Z,101563.70
2018-11-04T19:39:57.720Z,101561.41
2018-11-04T19:42:25.703Z,101560.36
2018-11-04T19:44:53.620Z,101553.55
2018-11-04T19:47:21.507Z,101551.87
2018-11-04T19:49:49.532Z,101553.91
2018-11-04T19:52:17.452Z,101550.94
2018-11-04T19:54:45.403Z,101548.41
2018-11-04T19:57:13.384Z,101546.84
2018-11-04T19:59:41.340Z,101543.08
2018-11-04T20:02:09.285Z,101543.75
2018-11-04T20:04:37.262Z,101545.37
2018-11-04T20:07:05.473Z,101539.30
2018-11-04T20:09:33.405Z,101538.15
2018-11-04T20:12:02.091Z,101539.71
2018-11-04T20:14:30.020Z,101534.79
2018-11-04T20:16:58.034Z,101537.19
2018-11-04T20:19:31.625Z,101536.66
2018-11-04T20:21:59.557Z,101538.81
2018-11-04T20:24:33.866Z,101542.48
2018-11-04T20:27:01.841Z,101542.43
2018-11-04T20:29:30.412Z,101536.77
2018-11-04T20:32:03.876Z,101534.05
2018-11-04T20:34:31.855Z,101533.99
2018-11-04T20:36:59.934Z,101530.59
2018-11-04T20:39:33.609Z,101529.39
2018-11-04T20:42:05.199Z,101529.02
2018-11-04T20:44:41.695Z,101526.70
2018-11-04T20:47:10.621Z,101522.56
2018-11-04T20:49:44.411Z,101525.34
2018-11-04T20:52:12.436Z,101517.91
2018-11-04T20:54:42.372Z,101513.72
2018-11-04T20:57:19.656Z,101515.75
2018-11-04T20:59:47.728Z,101517.38
2018-11-04T21:02:15.972Z,101516.22
2018-11-04T21:04:47.682Z,101520.66
2018-11-04T21:07:15.802Z,101512.70
2018-11-04T21:09:43.842Z,101510.92
2018-11-04T21:12:11.889Z,101512.70
2018-11-04T21:14:39.840Z,101508.25
2018-11-04T21:17:07.961Z,101510.38
2018-11-04T21:19:35.916Z,101516.27
2018-11-04T21:22:04.069Z,101516.20
2018-11-04T21:24:32.133Z,101512.31
2018-11-04T21:27:00.149Z,101517.55
2018-11-04T21:29:28.529Z,101519.17
2018-11-04T21:31:56.142Z,101510.94
2018-11-04T21:34:24.149Z,101508.05
2018-11-04T21:36:52.189Z,101509.09
2018-11-04T21:39:20.152Z,101501.08
2018-11-04T21:41:48.140Z,101508.24
2018-11-04T21:44:16.439Z,101507.93
2018-11-04T21:46:44.077Z,101508.90
2018-11-04T21:49:12.083Z,101506.66
2018-11-04T21:51:40.084Z,101507.32
2018-11-04T21:54:08.109Z,101506.36
2018-11-04T21:56:36.222Z,101498.82
2018-11-04T21:59:04.225Z,101496.31
2018-11-04T22:01:32.200Z,101494.45
2018-11-04T22:04:00.457Z,101493.42
2018-11-04T22:06:28.834Z,101490.77
2018-11-04T22:08:56.820Z,101489.53
2018-11-04T22:11:24.856Z,101489.46
2018-11-04T22:13:53.100Z,101491.63
2018-11-04T22:16:21.001Z,101487.39
2018-11-04T22:18:48.934Z,101482.82
2018-11-04T22:21:17.122Z,101475.18
2018-11-04T22:23:45.140Z,101468.44
2018-11-04T22:26:13.105Z,101470.19
2018-11-04T22:28:41.160Z,101471.98
2018-11-04T22:31:09.141Z,101465.45
2018-11-04T22:33:37.139Z,101471.26
2018-11-04T22:36:05.451Z,101464.72
2018-11-04T22:38:33.384Z,101465.20
2018-11-04T22:41:01.414Z,101471.26
2018-11-04T22:43:29.401Z,101470.53
2018-11-04T22:45:57.397Z,101470.13
2018-11-04T22:48:25.356Z,101469.41
2018-11-04T22:50:53.409Z,101474.73
2018-11-04T22:53:21.402Z,101470.53
2018-11-04T22:55:49.429Z,101473.77
2018-11-04T22:58:17.478Z,101479.48
2018-11-04T23:00:46.456Z,101485.88
2018-11-04T23:03:14.502Z,101483.17
2018-11-04T23:05:42.562Z,101475.56
2018-11-04T23:08:10.710Z,101472.94
2018-11-04T23:10:38.661Z,101473.87
2018-11-04T23:13:06.719Z,101470.58
2018-11-04T23:15:34.696Z,101473.53
2018-11-04T23:18:02.837Z,101475.21
2018-11-04T23:20:30.817Z,101468.70
2018-11-04T23:22:58.857Z,101476.94
2018-11-04T23:25:26.873Z,101481.86
2018-11-04T23:27:54.896Z,101480.27
2018-11-04T23:30:22.980Z,101474.25
2018-11-04T23:32:51.021Z,101464.92
2018-11-04T23:35:18.982Z,101470.91
2018-11-04T23:37:47.108Z,101465.45
2018-11-04T23:40:15.047Z,101468.38
2018-11-04T23:42:43.074Z,101460.22
2018-11-04T23:45:12.624Z,101453.98
2018-11-04T23:47:40.608Z,101453.13
2018-11-04T23:50:11.160Z,101450.52
2018-11-04T23:52:39.100Z,101449.79
2018-11-04T23:55:08.046Z,101443.53
2018-11-04T23:57:35.949Z,101443.43
